createdAt,value
2017-08-17T00:00:54.401Z,1001.2
2017-08-17T00:01:56.069Z,1001.3
2017-08-17T00:02:57.660Z,1001.3
2017-08-17T00:03:59.315Z,1001.3
2017-08-17T00:05:00.887Z,1001.2
2017-08-17T00:06:02.506Z,1001.3
2017-08-17T00:07:04.188Z,1001.3
2017-08-17T00:08:05.872Z,1001.3
2017-08-17T00:09:07.689Z,1001.3
2017-08-17T00:10:09.524Z,1001.3
2017-08-17T00:11:12.104Z,1001.2
2017-08-17T00:12:15.287Z,1001.2
2017-08-17T00:13:17.113Z,1001.2
2017-08-17T00:14:18.910Z,1001.3
2017-08-17T00:15:20.577Z,1001.3
2017-08-17T00:16:22.185Z,1001.2
2017-08-17T00:17:23.783Z,1001.3
2017-08-17T00:18:25.487Z,1001.3
2017-08-17T00:19:27.132Z,1001.3
2017-08-17T00:20:28.785Z,1001.3
2017-08-17T00:21:30.413Z,1001.3
2017-08-17T00:22:32.061Z,1001.2
2017-08-17T00:23:33.841Z,1001.2
2017-08-17T00:24:35.486Z,1001.2
2017-08-17T00:25:37.100Z,1001.2
2017-08-17T00:26:38.708Z,1001.2
2017-08-17T00:27:40.218Z,1001.2
2017-08-17T00:28:41.788Z,1001.2
2017-08-17T00:29:43.360Z,1001.2
2017-08-17T00:30:44.963Z,1001.2
2017-08-17T00:31:46.605Z,1001.2
2017-08-17T00:32:48.203Z,1001.3
2017-08-17T00:33:49.789Z,1001.2
2017-08-17T00:34:51.354Z,1001.2
2017-08-17T00:35:53.092Z,1001.2
2017-08-17T00:36:54.753Z,1001.2
2017-08-17T00:37:56.526Z,1001.2
2017-08-17T00:38:58.402Z,1001.2
2017-08-17T00:40:00.076Z,1001.2
2017-08-17T00:41:01.729Z,1001.2
2017-08-17T00:42:03.852Z,1001.2
2017-08-17T00:43:06.091Z,1001.2
2017-08-17T00:44:07.724Z,1001.1
2017-08-17T00:45:09.405Z,1001.1
2017-08-17T00:46:11.182Z,1001.1
2017-08-17T00:47:13.226Z,1001.1
2017-08-17T00:48:14.957Z,1001.1
2017-08-17T00:49:16.698Z,1001.1
2017-08-17T00:50:20.269Z,1001.1
2017-08-17T00:51:22.665Z,1001.1
2017-08-17T00:53:05.274Z,1001.1
2017-08-17T00:54:08.417Z,1001.1
2017-08-17T09:18:35.138Z,999.8
2017-08-17T09:19:36.627Z,999.8
2017-08-17T09:20:38.126Z,999.9
2017-08-17T09:21:39.634Z,999.9
2017-08-17T09:22:41.140Z,999.9
2017-08-17T09:23:42.602Z,999.9
2017-08-17T09:24:44.082Z,999.9
2017-08-17T09:25:45.536Z,999.8
2017-08-17T09:26:47.113Z,999.8
2017-08-17T09:27:48.621Z,999.7
2017-08-17T09:28:50.122Z,999.7
2017-08-17T09:29:51.598Z,999.7
2017-08-17T09:30:53.084Z,999.7
2017-08-17T09:31:54.522Z,999.8
2017-08-17T09:32:55.995Z,999.7
2017-08-17T09:33:57.458Z,999.8
2017-08-17T09:34:58.895Z,999.8
2017-08-17T09:36:00.351Z,999.7
2017-08-17T09:37:01.834Z,999.6
2017-08-17T09:38:03.338Z,999.7
2017-08-17T09:39:04.853Z,999.6
2017-08-17T09:40:06.293Z,999.5
2017-08-17T09:41:07.842Z,999.5
2017-08-17T09:42:09.332Z,999.5
2017-08-17T09:43:10.827Z,999.5
2017-08-17T09:44:12.297Z,999.5
2017-08-17T09:45:13.768Z,999.4
2017-08-17T09:46:15.252Z,999.4
2017-08-17T09:47:16.724Z,999.4
2017-08-17T09:48:18.236Z,999.4
2017-08-17T09:49:19.698Z,999.4
2017-08-17T09:50:21.171Z,999.3
2017-08-17T09:51:22.717Z,999.3
2017-08-17T09:52:24.171Z,999.3
2017-08-17T09:53:25.658Z,999.2
2017-08-17T09:54:27.146Z,999.3
2017-08-17T09:55:28.676Z,999.3
2017-08-17T09:56:30.161Z,999.3
2017-08-17T09:57:31.690Z,999.2
2017-08-17T09:58:33.149Z,999.2
2017-08-17T09:59:34.614Z,999.2
2017-08-17T10:00:36.043Z,999.2
2017-08-17T10:01:37.529Z,999.2
2017-08-17T10:02:39.151Z,999.2
2017-08-17T10:03:40.646Z,999.1
2017-08-17T10:04:42.286Z,999.1
2017-08-17T10:05:44.040Z,999.1
2017-08-17T10:06:45.480Z,999.1
2017-08-17T10:07:47.004Z,999.1
2017-08-17T10:08:48.569Z,999.1
2017-08-17T10:09:50.146Z,999.0
2017-08-17T10:10:51.692Z,999.0
2017-08-17T10:11:53.285Z,999.0
2017-08-17T10:12:54.868Z,999.0
2017-08-17T10:13:56.490Z,998.9
2017-08-17T10:14:57.895Z,998.9
2017-08-17T10:15:59.526Z,999.0
2017-08-17T10:17:01.150Z,999.0
2017-08-17T10:18:02.619Z,998.9
2017-08-17T10:19:04.164Z,998.9
2017-08-17T10:20:05.822Z,998.9
2017-08-17T10:21:07.405Z,998.9
2017-08-17T10:22:08.886Z,998.9
2017-08-17T10:23:10.366Z,998.8
2017-08-17T10:24:11.918Z,998.9
2017-08-17T10:25:13.404Z,998.9
2017-08-17T10:26:14.974Z,998.9
2017-08-17T10:27:16.483Z,998.8
2017-08-17T10:28:17.963Z,998.8
2017-08-17T10:29:19.540Z,998.8
2017-08-17T10:30:21.065Z,998.8
2017-08-17T10:31:22.573Z,998.8
2017-08-17T10:32:24.141Z,998.8
2017-08-17T10:33:25.796Z,998.8
2017-08-17T10:34:27.261Z,998.9
2017-08-17T10:35:28.913Z,998.8
2017-08-17T10:36:30.520Z,998.5
2017-08-17T10:37:32.028Z,998.7
2017-08-17T10:38:33.531Z,998.7
2017-08-17T10:39:35.136Z,998.8
2017-08-17T10:40:36.668Z,998.7
2017-08-17T10:41:38.223Z,998.6
2017-08-17T10:42:39.716Z,998.7
2017-08-17T10:43:41.258Z,998.6
2017-08-17T10:44:42.810Z,998.7
2017-08-17T10:45:44.303Z,998.7
2017-08-17T10:46:45.803Z,998.7
2017-08-17T10:47:47.322Z,998.7
2017-08-17T10:48:48.832Z,998.8
2017-08-17T10:49:50.342Z,998.8
2017-08-17T10:50:51.824Z,998.8
2017-08-17T10:51:53.355Z,998.6
2017-08-17T10:52:54.879Z,998.8
2017-08-17T10:53:56.447Z,998.7
2017-08-17T10:54:57.919Z,998.7
2017-08-17T10:55:59.383Z,998.7
2017-08-17T10:57:00.943Z,998.8
2017-08-17T10:58:02.381Z,998.8
2017-08-17T10:59:03.961Z,998.8
2017-08-17T11:00:05.451Z,998.7
2017-08-17T11:01:06.966Z,998.8
2017-08-17T11:02:08.458Z,998.9
2017-08-17T11:03:10.027Z,998.9
2017-08-17T11:04:11.508Z,999.2
2017-08-17T11:05:12.979Z,998.5
2017-08-17T11:06:14.500Z,998.6
2017-08-17T11:07:16.073Z,999.4
2017-08-17T11:08:17.577Z,998.6
2017-08-17T11:09:19.141Z,999.3
2017-08-17T11:10:20.673Z,998.5
2017-08-17T11:11:22.109Z,999.4
2017-08-17T11:12:23.582Z,998.5
2017-08-17T11:13:25.101Z,999.6
2017-08-17T11:14:26.568Z,998.4
2017-08-17T11:15:28.114Z,998.3
2017-08-17T11:16:29.633Z,998.3
2017-08-17T11:17:31.158Z,998.3
2017-08-17T11:18:32.640Z,998.3
2017-08-17T11:19:34.114Z,998.4
2017-08-17T11:20:35.581Z,999.4
2017-08-17T11:21:37.069Z,999.2
2017-08-17T11:22:38.571Z,999.2
2017-08-17T11:23:40.027Z,999.0
2017-08-17T11:24:41.504Z,998.4
2017-08-17T11:25:43.035Z,998.3
2017-08-17T11:26:44.512Z,998.7
2017-08-17T11:27:46.102Z,998.4
2017-08-17T11:28:47.660Z,998.8
2017-08-17T11:29:49.216Z,998.7
2017-08-17T11:30:50.728Z,998.6
2017-08-17T11:31:52.312Z,998.6
2017-08-17T11:32:53.824Z,998.6
2017-08-17T11:33:55.375Z,998.5
2017-08-17T11:34:56.889Z,998.3
2017-08-17T11:35:58.403Z,998.4
2017-08-17T11:36:59.959Z,998.3
2017-08-17T11:38:01.502Z,998.4
2017-08-17T11:39:03.021Z,998.4
2017-08-17T11:40:04.592Z,998.5
2017-08-17T11:41:06.131Z,998.4
2017-08-17T11:42:07.612Z,998.4
2017-08-17T11:43:09.140Z,998.4
2017-08-17T11:44:10.679Z,998.3
2017-08-17T11:45:12.272Z,998.3
2017-08-17T11:46:13.784Z,998.2
2017-08-17T11:47:15.281Z,998.3
2017-08-17T11:48:16.824Z,998.2
2017-08-17T11:49:18.344Z,998.3
2017-08-17T11:50:19.908Z,998.3
2017-08-17T11:51:21.479Z,998.2
2017-08-17T11:52:23.025Z,998.2
2017-08-17T11:53:24.566Z,998.3
2017-08-17T11:54:26.097Z,998.2
2017-08-17T11:55:27.650Z,998.2
2017-08-17T11:56:29.214Z,998.2
2017-08-17T11:57:30.823Z,998.2
2017-08-17T11:58:32.406Z,998.1
2017-08-17T11:59:33.921Z,998.3
2017-08-17T12:00:35.427Z,998.3
2017-08-17T12:01:36.948Z,998.3
2017-08-17T12:02:38.559Z,998.3
2017-08-17T12:03:40.174Z,998.3
2017-08-17T12:04:41.686Z,998.3
